createdAt,value
2022-08-23T00:25:10.673Z,45.6
2022-08-23T00:58:13.161Z,46.2
2022-08-23T01:28:15.634Z,45.6
2022-08-23T01:58:17.876Z,45.1
2022-08-23T02:38:20.911Z,44.5
2022-08-23T03:08:23.170Z,44
2022-08-23T03:39:25.636Z,44
2022-08-23T04:09:28.329Z,44
2022-08-23T04:39:30.723Z,44
2022-08-23T05:10:33.287Z,45.1
2022-08-23T05:43:35.764Z,45.6
2022-08-23T06:16:38.510Z,48.3
2022-08-23T06:46:41.264Z,49.4
2022-08-23T07:17:43.763Z,53.7
2022-08-23T07:47:46.190Z,62.8
2022-08-23T08:17:48.724Z,73.1
2022-08-23T08:47:51.266Z,76.8
2022-08-23T09:17:53.642Z,79.5
2022-08-23T09:48:56.367Z,79.5
2022-08-23T10:21:59.245Z,83.3
2022-08-23T10:53:01.897Z,82.2
2022-08-23T11:24:04.550Z,81.1
2022-08-23T11:54:07.187Z,81.7
2022-08-23T12:24:09.616Z,78.4
2022-08-23T12:54:12.175Z,77.9
2022-08-23T13:26:14.767Z,77.4
2022-08-23T13:56:17.352Z,74.7
2022-08-23T14:26:19.958Z,74.1
2022-08-23T14:58:22.548Z,76.3
2022-08-23T15:28:25.022Z,76.8
2022-08-23T15:58:27.623Z,79
2022-08-23T16:30:30.244Z,80.1
2022-08-23T17:00:32.658Z,79.5
2022-08-23T17:30:35.273Z,66.1
2022-08-23T18:06:38.335Z,55.8
2022-08-23T18:36:40.611Z,52.6
2022-08-23T19:08:43.165Z,51
2022-08-23T19:40:45.722Z,49.9
2022-08-23T20:10:48.606Z,49.4
2022-08-23T20:40:50.862Z,49.4
2022-08-23T21:19:53.898Z,48.9
2022-08-23T21:49:56.587Z,47.2
2022-08-23T22:21:59.103Z,46.7
2022-08-23T22:52:01.425Z,47.2
2022-08-23T23:23:04.173Z,46.7
2022-08-23T23:55:06.692Z,45.6
